Terminal Aerodrome Forecast
Issued by NWS Blacksburg, VA

Current Version | Previous Version | Text Only | Print | Product List | Glossary Off
Versions: 1 2 3 4 5 6 7 8 9 10 11 12 13 14 15 16 17 18 19 20 21 22 23 24 25 26 27 28 29 30 31 32

000
FTUS41 KRNK 231720
TAFBLF
TAF
KBLF 231720Z 2318/2418 12015G27KT P6SM -RA OVC050
     FM232000 12018G29KT 5SM -RA OVC035
      TEMPO 2320/2323 3SM -RA OVC012
     FM232300 11015G28KT P6SM OVC015
     FM240300 10015G26KT 5SM -RA OVC012=

USA.gov is the U.S. government's official web portal to all federal, state and local government web resources and services.